sensor_id;sensor_type;location;lat;lon;timestamp;temperature;humidity
8820;DHT22;4446;50.876;4.736;2023-07-31T00:01:26;15.80;99.90
8820;DHT22;4446;50.876;4.736;2023-07-31T00:03:53;15.90;99.90
8820;DHT22;4446;50.876;4.736;2023-07-31T00:06:21;15.80;99.90
8820;DHT22;4446;50.876;4.736;2023-07-31T00:08:48;15.90;99.90
8820;DHT22;4446;50.876;4.736;2023-07-31T00:11:15;15.90;99.90
8820;DHT22;4446;50.876;4.736;2023-07-31T00:13:42;15.90;99.90
8820;DHT22;4446;50.876;4.736;2023-07-31T00:16:09;15.90;99.90
8820;DHT22;4446;50.876;4.736;2023-07-31T00:18:36;16.00;99.90
8820;DHT22;4446;50.876;4.736;2023-07-31T00:21:03;16.00;99.90
8820;DHT22;4446;50.876;4.736;2023-07-31T00:23:31;16.00;99.90
8820;DHT22;4446;50.876;4.736;2023-07-31T00:25:58;16.00;99.90
8820;DHT22;4446;50.876;4.736;2023-07-31T00:28:25;16.00;99.90
8820;DHT22;4446;50.876;4.736;2023-07-31T00:30:52;16.00;99.90
8820;DHT22;4446;50.876;4.736;2023-07-31T00:33:19;16.00;99.90
8820;DHT22;4446;50.876;4.736;2023-07-31T00:35:47;16.00;99.90
8820;DHT22;4446;50.876;4.736;2023-07-31T00:38:14;16.00;99.90
8820;DHT22;4446;50.876;4.736;2023-07-31T00:40:43;16.00;99.90
8820;DHT22;4446;50.876;4.736;2023-07-31T00:43:10;16.00;99.90
8820;DHT22;4446;50.876;4.736;2023-07-31T00:45:37;16.10;99.90
8820;DHT22;4446;50.876;4.736;2023-07-31T00:48:04;16.10;99.90
8820;DHT22;4446;50.876;4.736;2023-07-31T00:50:33;16.10;99.90
8820;DHT22;4446;50.876;4.736;2023-07-31T00:53:00;16.20;99.90
8820;DHT22;4446;50.876;4.736;2023-07-31T00:55:27;16.20;99.90
8820;DHT22;4446;50.876;4.736;2023-07-31T00:57:56;16.30;99.90
8820;DHT22;4446;50.876;4.736;2023-07-31T01:00:23;16.20;99.90
8820;DHT22;4446;50.876;4.736;2023-07-31T01:02:51;16.30;99.90
8820;DHT22;4446;50.876;4.736;2023-07-31T01:05:25;16.30;99.90
8820;DHT22;4446;50.876;4.736;2023-07-31T01:08:04;16.30;99.90
8820;DHT22;4446;50.876;4.736;2023-07-31T01:10:36;16.30;99.90
8820;DHT22;4446;50.876;4.736;2023-07-31T01:13:06;16.30;99.90
8820;DHT22;4446;50.876;4.736;2023-07-31T01:15:33;16.30;99.90
8820;DHT22;4446;50.876;4.736;2023-07-31T01:17:59;16.30;99.90
8820;DHT22;4446;50.876;4.736;2023-07-31T01:20:27;16.30;99.90
8820;DHT22;4446;50.876;4.736;2023-07-31T01:23:23;16.30;99.90
8820;DHT22;4446;50.876;4.736;2023-07-31T01:26:05;16.30;99.90
8820;DHT22;4446;50.876;4.736;2023-07-31T01:28:38;16.30;99.90
8820;DHT22;4446;50.876;4.736;2023-07-31T01:31:08;16.30;99.90
8820;DHT22;4446;50.876;4.736;2023-07-31T01:33:37;16.30;99.90
8820;DHT22;4446;50.876;4.736;2023-07-31T01:36:05;16.30;99.90
8820;DHT22;4446;50.876;4.736;2023-07-31T01:38:32;16.20;99.90
8820;DHT22;4446;50.876;4.736;2023-07-31T01:41:00;16.30;99.90
8820;DHT22;4446;50.876;4.736;2023-07-31T01:43:27;16.30;99.90
8820;DHT22;4446;50.876;4.736;2023-07-31T01:45:54;16.40;99.90
8820;DHT22;4446;50.876;4.736;2023-07-31T01:48:21;16.40;99.90
8820;DHT22;4446;50.876;4.736;2023-07-31T01:50:48;16.40;99.90
8820;DHT22;4446;50.876;4.736;2023-07-31T01:53:15;16.50;99.90
8820;DHT22;4446;50.876;4.736;2023-07-31T01:55:42;16.40;99.90
8820;DHT22;4446;50.876;4.736;2023-07-31T01:58:10;16.40;99.90
8820;DHT22;4446;50.876;4.736;2023-07-31T02:00:37;16.50;99.90
8820;DHT22;4446;50.876;4.736;2023-07-31T02:03:04;16.40;99.90
8820;DHT22;4446;50.876;4.736;2023-07-31T02:05:31;16.40;99.90
8820;DHT22;4446;50.876;4.736;2023-07-31T02:07:58;16.50;99.90
8820;DHT22;4446;50.876;4.736;2023-07-31T02:10:25;16.40;99.90
8820;DHT22;4446;50.876;4.736;2023-07-31T02:12:52;16.40;99.90
8820;DHT22;4446;50.876;4.736;2023-07-31T02:15:20;16.40;99.90
8820;DHT22;4446;50.876;4.736;2023-07-31T02:17:47;16.40;99.90
8820;DHT22;4446;50.876;4.736;2023-07-31T02:20:14;16.30;99.90
8820;DHT22;4446;50.876;4.736;2023-07-31T02:22:41;16.30;99.90
8820;DHT22;4446;50.876;4.736;2023-07-31T02:25:08;16.30;99.90
8820;DHT22;4446;50.876;4.736;2023-07-31T02:27:35;16.30;99.90
8820;DHT22;4446;50.876;4.736;2023-07-31T02:30:02;16.30;99.90
8820;DHT22;4446;50.876;4.736;2023-07-31T02:32:30;16.30;99.90
8820;DHT22;4446;50.876;4.736;2023-07-31T02:34:57;16.30;99.90
8820;DHT22;4446;50.876;4.736;2023-07-31T02:37:25;16.30;99.90
8820;DHT22;4446;50.876;4.736;2023-07-31T02:39:54;16.30;99.90
8820;DHT22;4446;50.876;4.736;2023-07-31T02:42:21;16.30;99.90
8820;DHT22;4446;50.876;4.736;2023-07-31T02:44:48;16.30;99.90
8820;DHT22;4446;50.876;4.736;2023-07-31T02:47:16;16.20;99.90
8820;DHT22;4446;50.876;4.736;2023-07-31T02:49:45;16.20;99.90
8820;DHT22;4446;50.876;4.736;2023-07-31T02:52:12;16.30;99.90
8820;DHT22;4446;50.876;4.736;2023-07-31T02:54:39;16.30;99.90
8820;DHT22;4446;50.876;4.736;2023-07-31T02:57:06;16.30;99.90
8820;DHT22;4446;50.876;4.736;2023-07-31T02:59:33;16.30;99.90
8820;DHT22;4446;50.876;4.736;2023-07-31T03:02:00;16.30;99.90
8820;DHT22;4446;50.876;4.736;2023-07-31T03:04:27;16.40;99.90
8820;DHT22;4446;50.876;4.736;2023-07-31T03:06:55;16.40;99.90
8820;DHT22;4446;50.876;4.736;2023-07-31T03:09:22;16.30;99.90
8820;DHT22;4446;50.876;4.736;2023-07-31T03:11:49;16.40;99.90
8820;DHT22;4446;50.876;4.736;2023-07-31T03:14:16;16.50;99.90
8820;DHT22;4446;50.876;4.736;2023-07-31T03:16:43;16.40;99.90
8820;DHT22;4446;50.876;4.736;2023-07-31T03:19:10;16.50;99.90
8820;DHT22;4446;50.876;4.736;2023-07-31T03:21:37;16.50;99.90
8820;DHT22;4446;50.876;4.736;2023-07-31T03:24:05;16.50;99.90
8820;DHT22;4446;50.876;4.736;2023-07-31T03:26:32;16.50;99.90
8820;DHT22;4446;50.876;4.736;2023-07-31T03:28:59;16.50;99.90
8820;DHT22;4446;50.876;4.736;2023-07-31T03:31:26;16.50;99.90
8820;DHT22;4446;50.876;4.736;2023-07-31T03:33:53;16.50;99.90
8820;DHT22;4446;50.876;4.736;2023-07-31T03:36:20;16.50;99.90
8820;DHT22;4446;50.876;4.736;2023-07-31T03:38:47;16.50;99.90
8820;DHT22;4446;50.876;4.736;2023-07-31T03:41:15;16.60;99.90
8820;DHT22;4446;50.876;4.736;2023-07-31T03:43:42;16.60;99.90
8820;DHT22;4446;50.876;4.736;2023-07-31T03:46:09;16.60;99.90
8820;DHT22;4446;50.876;4.736;2023-07-31T03:48:36;16.60;99.90
8820;DHT22;4446;50.876;4.736;2023-07-31T03:51:04;16.60;99.90
8820;DHT22;4446;50.876;4.736;2023-07-31T03:53:31;16.70;99.90
8820;DHT22;4446;50.876;4.736;2023-07-31T03:55:58;16.60;99.90
8820;DHT22;4446;50.876;4.736;2023-07-31T03:58:26;16.60;99.90
8820;DHT22;4446;50.876;4.736;2023-07-31T04:00:53;16.60;99.90
8820;DHT22;4446;50.876;4.736;2023-07-31T04:03:20;16.50;99.90
8820;DHT22;4446;50.876;4.736;2023-07-31T04:05:47;16.50;99.90
8820;DHT22;4446;50.876;4.736;2023-07-31T04:08:14;16.50;99.90
8820;DHT22;4446;50.876;4.736;2023-07-31T04:10:41;16.50;99.90
8820;DHT22;4446;50.876;4.736;2023-07-31T04:13:08;16.50;99.90
8820;DHT22;4446;50.876;4.736;2023-07-31T04:15:36;16.50;99.90
8820;DHT22;4446;50.876;4.736;2023-07-31T04:18:04;16.50;99.90
8820;DHT22;4446;50.876;4.736;2023-07-31T04:20:31;16.40;99.90
8820;DHT22;4446;50.876;4.736;2023-07-31T04:22:58;16.40;99.90
8820;DHT22;4446;50.876;4.736;2023-07-31T04:25:25;16.40;99.90
8820;DHT22;4446;50.876;4.736;2023-07-31T04:27:52;16.40;99.90
8820;DHT22;4446;50.876;4.736;2023-07-31T04:30:19;16.30;99.90
8820;DHT22;4446;50.876;4.736;2023-07-31T04:32:47;16.40;99.90
8820;DHT22;4446;50.876;4.736;2023-07-31T04:35:14;16.30;99.90
8820;DHT22;4446;50.876;4.736;2023-07-31T04:37:41;16.30;99.90
8820;DHT22;4446;50.876;4.736;2023-07-31T04:40:11;16.30;99.90
8820;DHT22;4446;50.876;4.736;2023-07-31T04:42:38;16.30;99.90
8820;DHT22;4446;50.876;4.736;2023-07-31T04:45:07;16.30;99.90
8820;DHT22;4446;50.876;4.736;2023-07-31T04:47:34;16.20;99.90
8820;DHT22;4446;50.876;4.736;2023-07-31T04:50:03;16.20;99.90
8820;DHT22;4446;50.876;4.736;2023-07-31T04:52:30;16.20;99.90
8820;DHT22;4446;50.876;4.736;2023-07-31T04:54:57;16.20;99.90
8820;DHT22;4446;50.876;4.736;2023-07-31T04:57:24;16.30;99.90
8820;DHT22;4446;50.876;4.736;2023-07-31T04:59:51;16.30;99.90
8820;DHT22;4446;50.876;4.736;2023-07-31T05:02:18;16.30;99.90
8820;DHT22;4446;50.876;4.736;2023-07-31T05:04:45;16.20;99.90
8820;DHT22;4446;50.876;4.736;2023-07-31T05:07:13;16.30;99.90
8820;DHT22;4446;50.876;4.736;2023-07-31T05:09:41;16.30;99.90
8820;DHT22;4446;50.876;4.736;2023-07-31T05:12:08;16.30;99.90
8820;DHT22;4446;50.876;4.736;2023-07-31T05:14:35;16.30;99.90
8820;DHT22;4446;50.876;4.736;2023-07-31T05:17:02;16.30;99.90
8820;DHT22;4446;50.876;4.736;2023-07-31T05:19:30;16.30;99.90
8820;DHT22;4446;50.876;4.736;2023-07-31T05:21:57;16.20;99.90
8820;DHT22;4446;50.876;4.736;2023-07-31T05:24:25;16.30;99.90
8820;DHT22;4446;50.876;4.736;2023-07-31T05:26:52;16.30;99.90
8820;DHT22;4446;50.876;4.736;2023-07-31T05:29:19;16.30;99.90
8820;DHT22;4446;50.876;4.736;2023-07-31T05:31:46;16.30;99.90
8820;DHT22;4446;50.876;4.736;2023-07-31T05:34:13;16.30;99.90
8820;DHT22;4446;50.876;4.736;2023-07-31T05:36:41;16.30;99.90
8820;DHT22;4446;50.876;4.736;2023-07-31T05:39:08;16.30;99.90
8820;DHT22;4446;50.876;4.736;2023-07-31T05:41:36;16.30;99.90
8820;DHT22;4446;50.876;4.736;2023-07-31T05:44:03;16.30;99.90
8820;DHT22;4446;50.876;4.736;2023-07-31T05:46:30;16.30;99.90
8820;DHT22;4446;50.876;4.736;2023-07-31T05:48:58;16.30;99.90
8820;DHT22;4446;50.876;4.736;2023-07-31T05:51:26;16.20;99.90
8820;DHT22;4446;50.876;4.736;2023-07-31T05:53:53;16.20;99.90
8820;DHT22;4446;50.876;4.736;2023-07-31T05:56:20;16.20;99.90
8820;DHT22;4446;50.876;4.736;2023-07-31T05:58:49;16.10;99.90
8820;DHT22;4446;50.876;4.736;2023-07-31T06:01:16;16.10;99.90
8820;DHT22;4446;50.876;4.736;2023-07-31T06:03:43;16.10;99.90
8820;DHT22;4446;50.876;4.736;2023-07-31T06:06:11;16.10;99.90
8820;DHT22;4446;50.876;4.736;2023-07-31T06:08:39;16.10;99.90
8820;DHT22;4446;50.876;4.736;2023-07-31T06:11:06;16.00;99.90
8820;DHT22;4446;50.876;4.736;2023-07-31T06:13:34;16.00;99.90
8820;DHT22;4446;50.876;4.736;2023-07-31T06:16:03;16.00;99.90
8820;DHT22;4446;50.876;4.736;2023-07-31T06:18:32;16.00;99.90
8820;DHT22;4446;50.876;4.736;2023-07-31T06:20:59;16.00;99.90
8820;DHT22;4446;50.876;4.736;2023-07-31T06:23:26;16.00;99.90
8820;DHT22;4446;50.876;4.736;2023-07-31T06:25:53;16.00;99.90
8820;DHT22;4446;50.876;4.736;2023-07-31T06:28:20;16.00;99.90
8820;DHT22;4446;50.876;4.736;2023-07-31T06:30:47;16.00;99.90
8820;DHT22;4446;50.876;4.736;2023-07-31T06:33:15;16.00;99.90
8820;DHT22;4446;50.876;4.736;2023-07-31T06:35:42;16.00;99.90
8820;DHT22;4446;50.876;4.736;2023-07-31T06:38:09;16.00;99.90
8820;DHT22;4446;50.876;4.736;2023-07-31T06:40:36;16.10;99.90
8820;DHT22;4446;50.876;4.736;2023-07-31T06:43:03;16.10;99.90
8820;DHT22;4446;50.876;4.736;2023-07-31T06:45:33;16.10;99.90
8820;DHT22;4446;50.876;4.736;2023-07-31T06:48:01;16.10;99.90
8820;DHT22;4446;50.876;4.736;2023-07-31T06:50:30;16.20;99.90
8820;DHT22;4446;50.876;4.736;2023-07-31T06:52:58;16.20;99.90
8820;DHT22;4446;50.876;4.736;2023-07-31T06:55:25;16.20;99.90
8820;DHT22;4446;50.876;4.736;2023-07-31T06:57:55;16.20;99.90
8820;DHT22;4446;50.876;4.736;2023-07-31T07:00:23;16.20;99.90
8820;DHT22;4446;50.876;4.736;2023-07-31T07:02:50;16.30;99.90
8820;DHT22;4446;50.876;4.736;2023-07-31T07:05:17;16.30;99.90
8820;DHT22;4446;50.876;4.736;2023-07-31T07:07:46;16.40;99.90
8820;DHT22;4446;50.876;4.736;2023-07-31T07:10:13;16.40;99.90
8820;DHT22;4446;50.876;4.736;2023-07-31T07:12:40;16.50;99.90
8820;DHT22;4446;50.876;4.736;2023-07-31T07:15:07;16.50;99.90
8820;DHT22;4446;50.876;4.736;2023-07-31T07:17:34;16.50;99.90
8820;DHT22;4446;50.876;4.736;2023-07-31T07:20:02;16.60;99.90
8820;DHT22;4446;50.876;4.736;2023-07-31T07:22:30;16.70;99.90
8820;DHT22;4446;50.876;4.736;2023-07-31T07:24:58;16.70;99.90
8820;DHT22;4446;50.876;4.736;2023-07-31T07:27:25;16.70;99.90
8820;DHT22;4446;50.876;4.736;2023-07-31T07:29:52;16.70;99.90
8820;DHT22;4446;50.876;4.736;2023-07-31T07:32:20;16.90;99.90
8820;DHT22;4446;50.876;4.736;2023-07-31T07:34:48;17.00;99.90
8820;DHT22;4446;50.876;4.736;2023-07-31T07:37:15;17.10;99.90
8820;DHT22;4446;50.876;4.736;2023-07-31T07:39:43;17.20;99.90
8820;DHT22;4446;50.876;4.736;2023-07-31T07:42:11;17.20;99.90
8820;DHT22;4446;50.876;4.736;2023-07-31T07:44:38;17.20;99.90
8820;DHT22;4446;50.876;4.736;2023-07-31T07:47:05;17.20;99.90
8820;DHT22;4446;50.876;4.736;2023-07-31T07:49:33;17.20;99.90
8820;DHT22;4446;50.876;4.736;2023-07-31T07:52:00;17.10;99.90
8820;DHT22;4446;50.876;4.736;2023-07-31T07:54:27;17.10;99.90
8820;DHT22;4446;50.876;4.736;2023-07-31T07:56:54;17.20;99.90
8820;DHT22;4446;50.876;4.736;2023-07-31T07:59:23;17.20;99.90
8820;DHT22;4446;50.876;4.736;2023-07-31T08:01:50;17.20;99.90
8820;DHT22;4446;50.876;4.736;2023-07-31T08:04:17;17.40;99.90
8820;DHT22;4446;50.876;4.736;2023-07-31T08:06:44;17.40;99.90
8820;DHT22;4446;50.876;4.736;2023-07-31T08:09:11;17.30;99.90
8820;DHT22;4446;50.876;4.736;2023-07-31T08:11:38;17.30;99.90
8820;DHT22;4446;50.876;4.736;2023-07-31T08:14:05;17.30;99.90
8820;DHT22;4446;50.876;4.736;2023-07-31T08:16:33;17.30;99.90
8820;DHT22;4446;50.876;4.736;2023-07-31T08:19:00;17.30;99.90
8820;DHT22;4446;50.876;4.736;2023-07-31T08:21:27;17.30;99.90
8820;DHT22;4446;50.876;4.736;2023-07-31T08:23:54;17.40;99.90
8820;DHT22;4446;50.876;4.736;2023-07-31T08:26:21;17.30;99.90
8820;DHT22;4446;50.876;4.736;2023-07-31T08:28:48;17.40;99.90
8820;DHT22;4446;50.876;4.736;2023-07-31T08:31:15;17.50;99.90
8820;DHT22;4446;50.876;4.736;2023-07-31T08:33:45;17.70;99.90
8820;DHT22;4446;50.876;4.736;2023-07-31T08:36:12;17.70;99.90
8820;DHT22;4446;50.876;4.736;2023-07-31T08:38:39;17.70;99.90
8820;DHT22;4446;50.876;4.736;2023-07-31T08:41:06;17.60;99.90
8820;DHT22;4446;50.876;4.736;2023-07-31T08:43:36;17.70;99.90
8820;DHT22;4446;50.876;4.736;2023-07-31T08:46:05;17.70;99.90
8820;DHT22;4446;50.876;4.736;2023-07-31T08:48:32;17.80;99.90
8820;DHT22;4446;50.876;4.736;2023-07-31T08:51:00;17.80;99.90
8820;DHT22;4446;50.876;4.736;2023-07-31T08:53:28;18.00;99.90
8820;DHT22;4446;50.876;4.736;2023-07-31T08:55:55;18.00;99.90
8820;DHT22;4446;50.876;4.736;2023-07-31T08:58:24;18.10;99.90
8820;DHT22;4446;50.876;4.736;2023-07-31T09:00:52;18.00;99.90
8820;DHT22;4446;50.876;4.736;2023-07-31T09:03:23;18.00;99.90
8820;DHT22;4446;50.876;4.736;2023-07-31T09:05:51;17.80;99.90
8820;DHT22;4446;50.876;4.736;2023-07-31T09:08:21;17.70;99.90
8820;DHT22;4446;50.876;4.736;2023-07-31T09:10:48;17.70;99.90
8820;DHT22;4446;50.876;4.736;2023-07-31T09:13:16;17.70;99.90
8820;DHT22;4446;50.876;4.736;2023-07-31T09:15:45;17.80;99.90
8820;DHT22;4446;50.876;4.736;2023-07-31T09:18:12;17.70;99.90
8820;DHT22;4446;50.876;4.736;2023-07-31T09:20:43;17.80;99.90
8820;DHT22;4446;50.876;4.736;2023-07-31T09:23:11;17.90;99.90
8820;DHT22;4446;50.876;4.736;2023-07-31T09:25:43;18.00;99.90
8820;DHT22;4446;50.876;4.736;2023-07-31T09:28:11;17.90;99.90
8820;DHT22;4446;50.876;4.736;2023-07-31T09:30:46;17.90;99.90
8820;DHT22;4446;50.876;4.736;2023-07-31T09:33:14;17.90;99.90
8820;DHT22;4446;50.876;4.736;2023-07-31T09:35:41;17.80;99.90
8820;DHT22;4446;50.876;4.736;2023-07-31T09:38:10;17.90;99.90
8820;DHT22;4446;50.876;4.736;2023-07-31T09:40:40;18.00;99.90
8820;DHT22;4446;50.876;4.736;2023-07-31T09:43:09;18.10;99.90
8820;DHT22;4446;50.876;4.736;2023-07-31T09:45:38;18.30;99.90
8820;DHT22;4446;50.876;4.736;2023-07-31T09:48:07;18.40;99.90
8820;DHT22;4446;50.876;4.736;2023-07-31T09:50:37;18.50;99.90
8820;DHT22;4446;50.876;4.736;2023-07-31T09:53:05;18.70;99.90
8820;DHT22;4446;50.876;4.736;2023-07-31T09:55:33;18.90;99.90
8820;DHT22;4446;50.876;4.736;2023-07-31T09:58:04;19.00;99.90
8820;DHT22;4446;50.876;4.736;2023-07-31T10:00:31;19.00;99.90
8820;DHT22;4446;50.876;4.736;2023-07-31T10:03:00;19.00;99.90
8820;DHT22;4446;50.876;4.736;2023-07-31T10:05:30;19.00;99.90
8820;DHT22;4446;50.876;4.736;2023-07-31T10:07:58;18.90;99.90
8820;DHT22;4446;50.876;4.736;2023-07-31T10:10:26;18.70;99.90
8820;DHT22;4446;50.876;4.736;2023-07-31T10:12:55;18.70;99.90
8820;DHT22;4446;50.876;4.736;2023-07-31T10:15:24;18.90;99.90
8820;DHT22;4446;50.876;4.736;2023-07-31T10:17:52;18.80;99.90
8820;DHT22;4446;50.876;4.736;2023-07-31T10:20:21;19.00;99.90
8820;DHT22;4446;50.876;4.736;2023-07-31T10:22:48;19.00;99.90
8820;DHT22;4446;50.876;4.736;2023-07-31T10:25:16;19.10;99.90
8820;DHT22;4446;50.876;4.736;2023-07-31T10:27:43;19.20;99.90
8820;DHT22;4446;50.876;4.736;2023-07-31T10:30:13;19.10;99.90
8820;DHT22;4446;50.876;4.736;2023-07-31T10:32:43;19.10;99.90
8820;DHT22;4446;50.876;4.736;2023-07-31T10:35:11;19.30;99.90
8820;DHT22;4446;50.876;4.736;2023-07-31T10:37:39;19.40;99.90
8820;DHT22;4446;50.876;4.736;2023-07-31T10:40:11;19.60;99.90
8820;DHT22;4446;50.876;4.736;2023-07-31T10:42:45;19.70;99.90
8820;DHT22;4446;50.876;4.736;2023-07-31T10:45:14;20.00;99.90
8820;DHT22;4446;50.876;4.736;2023-07-31T10:47:44;20.10;99.90
8820;DHT22;4446;50.876;4.736;2023-07-31T10:50:17;20.40;99.90
8820;DHT22;4446;50.876;4.736;2023-07-31T10:52:47;20.40;99.90
8820;DHT22;4446;50.876;4.736;2023-07-31T10:55:25;20.50;99.90
8820;DHT22;4446;50.876;4.736;2023-07-31T10:57:53;20.30;99.90
8820;DHT22;4446;50.876;4.736;2023-07-31T11:00:22;20.30;99.90
8820;DHT22;4446;50.876;4.736;2023-07-31T11:03:03;19.90;99.90
8820;DHT22;4446;50.876;4.736;2023-07-31T11:05:51;19.70;99.90
8820;DHT22;4446;50.876;4.736;2023-07-31T11:08:21;19.70;99.90
8820;DHT22;4446;50.876;4.736;2023-07-31T11:10:51;19.80;99.90
8820;DHT22;4446;50.876;4.736;2023-07-31T11:13:19;19.80;99.90
8820;DHT22;4446;50.876;4.736;2023-07-31T11:15:47;19.90;99.90
8820;DHT22;4446;50.876;4.736;2023-07-31T11:18:15;20.00;99.90
8820;DHT22;4446;50.876;4.736;2023-07-31T11:20:42;20.20;99.90
8820;DHT22;4446;50.876;4.736;2023-07-31T11:23:10;20.30;99.90
8820;DHT22;4446;50.876;4.736;2023-07-31T11:25:38;20.50;99.90
8820;DHT22;4446;50.876;4.736;2023-07-31T11:28:09;20.30;99.90
8820;DHT22;4446;50.876;4.736;2023-07-31T11:30:36;20.30;99.90
8820;DHT22;4446;50.876;4.736;2023-07-31T11:33:04;20.30;99.90
8820;DHT22;4446;50.876;4.736;2023-07-31T11:35:34;20.40;99.90
8820;DHT22;4446;50.876;4.736;2023-07-31T11:38:02;20.40;99.90
8820;DHT22;4446;50.876;4.736;2023-07-31T11:40:29;20.50;99.90
8820;DHT22;4446;50.876;4.736;2023-07-31T11:42:57;20.80;99.90
8820;DHT22;4446;50.876;4.736;2023-07-31T11:45:27;20.90;99.90
8820;DHT22;4446;50.876;4.736;2023-07-31T11:47:55;20.90;99.90
8820;DHT22;4446;50.876;4.736;2023-07-31T11:50:23;20.90;99.90
8820;DHT22;4446;50.876;4.736;2023-07-31T11:52:56;21.00;99.90
8820;DHT22;4446;50.876;4.736;2023-07-31T11:55:24;21.00;99.90
8820;DHT22;4446;50.876;4.736;2023-07-31T11:57:52;21.10;99.90
8820;DHT22;4446;50.876;4.736;2023-07-31T12:00:20;21.30;99.90
8820;DHT22;4446;50.876;4.736;2023-07-31T12:02:48;21.30;99.90
8820;DHT22;4446;50.876;4.736;2023-07-31T12:05:15;21.40;99.90
8820;DHT22;4446;50.876;4.736;2023-07-31T12:07:47;21.20;99.90
8820;DHT22;4446;50.876;4.736;2023-07-31T12:10:27;21.10;99.90
8820;DHT22;4446;50.876;4.736;2023-07-31T12:12:59;21.30;99.90
8820;DHT22;4446;50.876;4.736;2023-07-31T12:15:34;21.20;99.90
8820;DHT22;4446;50.876;4.736;2023-07-31T12:18:05;21.10;99.90
8820;DHT22;4446;50.876;4.736;2023-07-31T12:20:32;20.90;99.90
8820;DHT22;4446;50.876;4.736;2023-07-31T12:23:00;21.20;99.90
8820;DHT22;4446;50.876;4.736;2023-07-31T12:25:33;21.40;99.90
8820;DHT22;4446;50.876;4.736;2023-07-31T12:28:06;21.40;99.90
8820;DHT22;4446;50.876;4.736;2023-07-31T12:30:37;21.70;99.90
8820;DHT22;4446;50.876;4.736;2023-07-31T12:33:05;21.70;99.90
8820;DHT22;4446;50.876;4.736;2023-07-31T12:35:37;21.70;99.90
8820;DHT22;4446;50.876;4.736;2023-07-31T12:38:04;21.80;99.90
8820;DHT22;4446;50.876;4.736;2023-07-31T12:40:33;21.60;99.90
8820;DHT22;4446;50.876;4.736;2023-07-31T12:43:03;21.50;99.90
8820;DHT22;4446;50.876;4.736;2023-07-31T12:45:30;21.30;99.90
8820;DHT22;4446;50.876;4.736;2023-07-31T12:47:57;21.20;99.90
8820;DHT22;4446;50.876;4.736;2023-07-31T12:50:24;21.30;99.90
8820;DHT22;4446;50.876;4.736;2023-07-31T12:52:53;21.30;99.90
8820;DHT22;4446;50.876;4.736;2023-07-31T12:55:20;21.40;99.90
8820;DHT22;4446;50.876;4.736;2023-07-31T12:57:49;21.40;99.90
8820;DHT22;4446;50.876;4.736;2023-07-31T13:00:16;21.40;99.90
8820;DHT22;4446;50.876;4.736;2023-07-31T13:02:43;21.30;99.90
8820;DHT22;4446;50.876;4.736;2023-07-31T13:05:10;21.30;99.90
8820;DHT22;4446;50.876;4.736;2023-07-31T13:07:39;21.40;99.90
8820;DHT22;4446;50.876;4.736;2023-07-31T13:10:06;21.30;99.90
8820;DHT22;4446;50.876;4.736;2023-07-31T13:12:33;21.30;99.90
8820;DHT22;4446;50.876;4.736;2023-07-31T13:15:02;21.10;99.90
8820;DHT22;4446;50.876;4.736;2023-07-31T13:17:29;21.20;99.90
8820;DHT22;4446;50.876;4.736;2023-07-31T13:19:56;21.10;99.90
8820;DHT22;4446;50.876;4.736;2023-07-31T13:22:23;21.00;99.90
8820;DHT22;4446;50.876;4.736;2023-07-31T13:24:50;20.90;99.90
8820;DHT22;4446;50.876;4.736;2023-07-31T13:27:17;20.90;99.90
8820;DHT22;4446;50.876;4.736;2023-07-31T13:29:47;20.80;99.90
8820;DHT22;4446;50.876;4.736;2023-07-31T13:32:16;20.80;99.90
8820;DHT22;4446;50.876;4.736;2023-07-31T13:34:43;20.70;99.90
8820;DHT22;4446;50.876;4.736;2023-07-31T13:37:10;20.60;99.90
8820;DHT22;4446;50.876;4.736;2023-07-31T13:39:37;20.30;99.90
8820;DHT22;4446;50.876;4.736;2023-07-31T13:42:05;20.20;99.90
8820;DHT22;4446;50.876;4.736;2023-07-31T13:44:33;19.90;99.90
8820;DHT22;4446;50.876;4.736;2023-07-31T13:47:01;19.70;99.90
8820;DHT22;4446;50.876;4.736;2023-07-31T13:49:30;19.40;99.90
8820;DHT22;4446;50.876;4.736;2023-07-31T13:51:57;19.20;99.90
8820;DHT22;4446;50.876;4.736;2023-07-31T13:54:25;19.10;99.90
8820;DHT22;4446;50.876;4.736;2023-07-31T13:56:52;18.90;99.90
8820;DHT22;4446;50.876;4.736;2023-07-31T13:59:20;18.70;99.90
8820;DHT22;4446;50.876;4.736;2023-07-31T14:01:47;18.60;99.90
8820;DHT22;4446;50.876;4.736;2023-07-31T14:04:14;18.40;99.90
8820;DHT22;4446;50.876;4.736;2023-07-31T14:06:44;18.30;99.90
8820;DHT22;4446;50.876;4.736;2023-07-31T14:09:13;18.30;99.90
8820;DHT22;4446;50.876;4.736;2023-07-31T14:11:41;18.20;99.90
8820;DHT22;4446;50.876;4.736;2023-07-31T14:14:09;18.20;99.90
8820;DHT22;4446;50.876;4.736;2023-07-31T14:16:36;18.20;99.90
8820;DHT22;4446;50.876;4.736;2023-07-31T14:19:04;18.20;99.90
8820;DHT22;4446;50.876;4.736;2023-07-31T14:21:31;18.30;99.90
8820;DHT22;4446;50.876;4.736;2023-07-31T14:23:59;18.20;99.90
8820;DHT22;4446;50.876;4.736;2023-07-31T14:26:26;18.20;99.90
8820;DHT22;4446;50.876;4.736;2023-07-31T14:28:53;18.10;99.90
8820;DHT22;4446;50.876;4.736;2023-07-31T14:31:20;18.10;99.90
8820;DHT22;4446;50.876;4.736;2023-07-31T14:33:47;18.10;99.90
8820;DHT22;4446;50.876;4.736;2023-07-31T14:36:14;18.10;99.90
8820;DHT22;4446;50.876;4.736;2023-07-31T14:38:41;18.00;99.90
8820;DHT22;4446;50.876;4.736;2023-07-31T14:41:10;18.00;99.90
8820;DHT22;4446;50.876;4.736;2023-07-31T14:43:37;18.10;99.90
8820;DHT22;4446;50.876;4.736;2023-07-31T14:46:05;18.10;99.90
8820;DHT22;4446;50.876;4.736;2023-07-31T14:48:32;18.10;99.90
8820;DHT22;4446;50.876;4.736;2023-07-31T14:50:59;18.10;99.90
8820;DHT22;4446;50.876;4.736;2023-07-31T14:53:26;18.00;99.90
8820;DHT22;4446;50.876;4.736;2023-07-31T14:55:53;18.10;99.90
8820;DHT22;4446;50.876;4.736;2023-07-31T14:58:22;18.00;99.90
8820;DHT22;4446;50.876;4.736;2023-07-31T15:00:49;17.90;99.90
8820;DHT22;4446;50.876;4.736;2023-07-31T15:03:16;17.90;99.90
8820;DHT22;4446;50.876;4.736;2023-07-31T15:05:43;17.90;99.90
8820;DHT22;4446;50.876;4.736;2023-07-31T15:08:10;17.90;99.90
8820;DHT22;4446;50.876;4.736;2023-07-31T15:10:37;17.90;99.90
8820;DHT22;4446;50.876;4.736;2023-07-31T15:13:04;17.90;99.90
8820;DHT22;4446;50.876;4.736;2023-07-31T15:15:33;17.90;99.90
8820;DHT22;4446;50.876;4.736;2023-07-31T15:18:00;17.90;99.90
8820;DHT22;4446;50.876;4.736;2023-07-31T15:20:27;17.90;99.90
8820;DHT22;4446;50.876;4.736;2023-07-31T15:22:55;17.90;99.90
8820;DHT22;4446;50.876;4.736;2023-07-31T15:25:22;17.90;99.90
8820;DHT22;4446;50.876;4.736;2023-07-31T15:27:49;17.90;99.90
8820;DHT22;4446;50.876;4.736;2023-07-31T15:30:16;17.90;99.90
8820;DHT22;4446;50.876;4.736;2023-07-31T15:32:44;18.00;99.90
8820;DHT22;4446;50.876;4.736;2023-07-31T15:35:14;18.00;99.90
8820;DHT22;4446;50.876;4.736;2023-07-31T15:37:41;18.00;99.90
8820;DHT22;4446;50.876;4.736;2023-07-31T15:40:09;18.00;99.90
8820;DHT22;4446;50.876;4.736;2023-07-31T15:42:36;17.90;99.90
8820;DHT22;4446;50.876;4.736;2023-07-31T15:45:06;17.90;99.90
8820;DHT22;4446;50.876;4.736;2023-07-31T15:47:34;17.90;99.90
8820;DHT22;4446;50.876;4.736;2023-07-31T15:50:03;17.80;99.90
8820;DHT22;4446;50.876;4.736;2023-07-31T15:52:30;17.80;99.90
8820;DHT22;4446;50.876;4.736;2023-07-31T15:54:57;17.90;99.90
8820;DHT22;4446;50.876;4.736;2023-07-31T15:57:24;17.80;99.90
8820;DHT22;4446;50.876;4.736;2023-07-31T15:59:51;17.80;99.90
8820;DHT22;4446;50.876;4.736;2023-07-31T16:02:18;17.80;99.90
8820;DHT22;4446;50.876;4.736;2023-07-31T16:04:45;17.70;99.90
8820;DHT22;4446;50.876;4.736;2023-07-31T16:07:14;17.70;99.90